Terminal Aerodrome Forecast
Issued by NWS

Home | Current Version | Previous Version | Text Only | Print | Product List | Glossary On
Versions: 1 2 3 4 5 6 7 8 9 10 11 12 13 14 15 16
000
FTUS43 KEAX 262300
TAFMKC
TAF
KMKC 262336Z 2700/2724 05006KT P6SM SKC
     FM270200 11007KT P6SM SCT060 SCT200
      TEMPO 2710/2713 6SM BR SCT015
     FM271300 10007KT P6SM FEW025 SCT080=

USA.gov is the U.S. government's official web portal to all federal, state and local government web resources and services.